sensor_id;sensor_type;location;lat;lon;timestamp;pressure;altitude;pressure_sealevel;temperature;humidity
73516;BME280;61763;51.416;5.442;2023-04-03T00:00:09;102896.84;;;-1.42;100.00
73516;BME280;61763;51.416;5.442;2023-04-03T00:02:35;102894.19;;;-1.42;100.00
73516;BME280;61763;51.416;5.442;2023-04-03T00:05:01;102892.34;;;-1.44;100.00
73516;BME280;61763;51.416;5.442;2023-04-03T00:07:26;102902.84;;;-1.47;100.00
73516;BME280;61763;51.416;5.442;2023-04-03T00:09:51;102897.44;;;-1.50;100.00
73516;BME280;61763;51.416;5.442;2023-04-03T00:12:17;102901.75;;;-1.54;100.00
73516;BME280;61763;51.416;5.442;2023-04-03T00:14:42;102880.13;;;-1.68;100.00
73516;BME280;61763;51.416;5.442;2023-04-03T00:17:08;102898.03;;;-1.59;100.00
73516;BME280;61763;51.416;5.442;2023-04-03T00:19:35;102899.69;;;-1.63;100.00
73516;BME280;61763;51.416;5.442;2023-04-03T00:22:00;102904.84;;;-1.67;100.00
73516;BME280;61763;51.416;5.442;2023-04-03T00:24:27;102913.63;;;-1.68;100.00
73516;BME280;61763;51.416;5.442;2023-04-03T00:26:53;102916.31;;;-1.67;100.00
73516;BME280;61763;51.416;5.442;2023-04-03T00:29:18;102910.13;;;-1.67;100.00
73516;BME280;61763;51.416;5.442;2023-04-03T00:31:43;102919.75;;;-1.69;100.00
73516;BME280;61763;51.416;5.442;2023-04-03T00:34:09;102904.75;;;-1.70;100.00
73516;BME280;61763;51.416;5.442;2023-04-03T00:36:34;102914.34;;;-1.72;100.00
73516;BME280;61763;51.416;5.442;2023-04-03T00:39:00;102912.53;;;-1.75;100.00
73516;BME280;61763;51.416;5.442;2023-04-03T00:41:25;102908.88;;;-1.79;100.00
73516;BME280;61763;51.416;5.442;2023-04-03T00:43:51;102914.94;;;-1.81;100.00
73516;BME280;61763;51.416;5.442;2023-04-03T00:46:16;102915.72;;;-1.85;100.00
73516;BME280;61763;51.416;5.442;2023-04-03T00:48:46;102914.63;;;-1.90;100.00
73516;BME280;61763;51.416;5.442;2023-04-03T00:51:19;102911.94;;;-1.92;100.00
73516;BME280;61763;51.416;5.442;2023-04-03T00:53:59;102914.59;;;-1.92;100.00
73516;BME280;61763;51.416;5.442;2023-04-03T00:56:26;102914.38;;;-1.98;100.00
73516;BME280;61763;51.416;5.442;2023-04-03T00:59:06;102916.09;;;-2.00;100.00
73516;BME280;61763;51.416;5.442;2023-04-03T01:01:35;102924.88;;;-2.01;100.00
73516;BME280;61763;51.416;5.442;2023-04-03T01:04:02;102920.66;;;-1.95;100.00
73516;BME280;61763;51.416;5.442;2023-04-03T01:06:32;102921.69;;;-1.91;100.00
73516;BME280;61763;51.416;5.442;2023-04-03T01:08:59;102925.97;;;-1.95;100.00
73516;BME280;61763;51.416;5.442;2023-04-03T01:11:25;102920.78;;;-1.91;100.00
73516;BME280;61763;51.416;5.442;2023-04-03T01:13:51;102928.59;;;-1.95;100.00
73516;BME280;61763;51.416;5.442;2023-04-03T01:16:17;102924.19;;;-1.96;100.00
73516;BME280;61763;51.416;5.442;2023-04-03T01:18:43;102925.84;;;-1.98;100.00
73516;BME280;61763;51.416;5.442;2023-04-03T01:26:51;102923.72;;;-2.08;100.00
73516;BME280;61763;51.416;5.442;2023-04-03T01:29:16;102933.28;;;-2.13;100.00
73516;BME280;61763;51.416;5.442;2023-04-03T01:31:57;102925.28;;;-2.15;100.00
73516;BME280;61763;51.416;5.442;2023-04-03T01:34:23;102932.28;;;-2.15;100.00
73516;BME280;61763;51.416;5.442;2023-04-03T01:36:49;102928.66;;;-2.19;100.00
73516;BME280;61763;51.416;5.442;2023-04-03T01:39:16;102933.88;;;-2.20;100.00
73516;BME280;61763;51.416;5.442;2023-04-03T01:41:42;102933.00;;;-2.21;100.00
73516;BME280;61763;51.416;5.442;2023-04-03T01:44:07;102934.25;;;-2.09;100.00
73516;BME280;61763;51.416;5.442;2023-04-03T01:46:33;102933.44;;;-2.08;100.00
73516;BME280;61763;51.416;5.442;2023-04-03T01:48:59;102928.03;;;-2.12;100.00
73516;BME280;61763;51.416;5.442;2023-04-03T01:51:24;102923.47;;;-2.16;100.00
73516;BME280;61763;51.416;5.442;2023-04-03T01:53:51;102936.59;;;-2.19;100.00
73516;BME280;61763;51.416;5.442;2023-04-03T01:56:18;102930.34;;;-2.21;100.00
73516;BME280;61763;51.416;5.442;2023-04-03T01:58:43;102931.19;;;-2.22;100.00
73516;BME280;61763;51.416;5.442;2023-04-03T02:01:09;102924.09;;;-2.23;100.00
73516;BME280;61763;51.416;5.442;2023-04-03T02:03:34;102933.00;;;-2.21;100.00
73516;BME280;61763;51.416;5.442;2023-04-03T02:06:00;102932.09;;;-2.21;100.00
73516;BME280;61763;51.416;5.442;2023-04-03T02:08:25;102938.28;;;-2.21;100.00
73516;BME280;61763;51.416;5.442;2023-04-03T02:10:51;102930.88;;;-2.05;100.00
73516;BME280;61763;51.416;5.442;2023-04-03T02:13:17;102927.63;;;-1.98;100.00
73516;BME280;61763;51.416;5.442;2023-04-03T02:15:43;102939.63;;;-1.82;100.00
73516;BME280;61763;51.416;5.442;2023-04-03T02:18:08;102932.59;;;-1.82;100.00
73516;BME280;61763;51.416;5.442;2023-04-03T02:20:34;102935.06;;;-1.86;100.00
73516;BME280;61763;51.416;5.442;2023-04-03T02:23:00;102929.97;;;-1.27;100.00
73516;BME280;61763;51.416;5.442;2023-04-03T02:25:26;102945.00;;;-1.53;100.00
73516;BME280;61763;51.416;5.442;2023-04-03T02:27:51;102931.63;;;-1.58;100.00
73516;BME280;61763;51.416;5.442;2023-04-03T02:30:17;102939.56;;;-1.58;100.00
73516;BME280;61763;51.416;5.442;2023-04-03T02:32:43;102937.41;;;-1.15;100.00
73516;BME280;61763;51.416;5.442;2023-04-03T02:35:09;102938.22;;;-0.89;100.00
73516;BME280;61763;51.416;5.442;2023-04-03T02:37:35;102924.53;;;-0.74;100.00
73516;BME280;61763;51.416;5.442;2023-04-03T02:40:01;102935.88;;;-0.49;100.00
73516;BME280;61763;51.416;5.442;2023-04-03T02:42:26;102936.75;;;-0.49;100.00
73516;BME280;61763;51.416;5.442;2023-04-03T02:44:51;102934.94;;;-0.51;100.00
73516;BME280;61763;51.416;5.442;2023-04-03T02:47:17;102937.28;;;-0.30;100.00
73516;BME280;61763;51.416;5.442;2023-04-03T02:49:44;102940.47;;;-0.44;100.00
73516;BME280;61763;51.416;5.442;2023-04-03T02:52:11;102941.84;;;-0.26;100.00
73516;BME280;61763;51.416;5.442;2023-04-03T02:54:37;102949.72;;;-0.29;100.00
73516;BME280;61763;51.416;5.442;2023-04-03T02:57:02;102943.25;;;-0.07;100.00
73516;BME280;61763;51.416;5.442;2023-04-03T02:59:28;102938.91;;;-0.04;100.00
73516;BME280;61763;51.416;5.442;2023-04-03T03:01:53;102946.06;;;-0.01;100.00
73516;BME280;61763;51.416;5.442;2023-04-03T03:04:19;102951.19;;;-0.09;100.00
73516;BME280;61763;51.416;5.442;2023-04-03T03:06:44;102943.31;;;-0.04;100.00
73516;BME280;61763;51.416;5.442;2023-04-03T03:09:10;102946.22;;;0.05;100.00
73516;BME280;61763;51.416;5.442;2023-04-03T03:11:38;102947.41;;;0.16;100.00
73516;BME280;61763;51.416;5.442;2023-04-03T03:14:03;102941.16;;;0.14;100.00
73516;BME280;61763;51.416;5.442;2023-04-03T03:16:31;102944.91;;;0.23;100.00
73516;BME280;61763;51.416;5.442;2023-04-03T03:18:56;102943.81;;;0.14;100.00
73516;BME280;61763;51.416;5.442;2023-04-03T03:21:22;102940.06;;;0.06;100.00
73516;BME280;61763;51.416;5.442;2023-04-03T03:23:48;102935.41;;;-0.03;100.00
73516;BME280;61763;51.416;5.442;2023-04-03T03:26:14;102936.28;;;-0.02;100.00
73516;BME280;61763;51.416;5.442;2023-04-03T03:28:40;102928.16;;;-0.08;100.00
73516;BME280;61763;51.416;5.442;2023-04-03T03:31:06;102943.91;;;-0.16;100.00
73516;BME280;61763;51.416;5.442;2023-04-03T03:33:32;102944.50;;;-0.26;100.00
73516;BME280;61763;51.416;5.442;2023-04-03T03:35:58;102948.25;;;-0.18;100.00
73516;BME280;61763;51.416;5.442;2023-04-03T03:38:24;102949.81;;;-0.26;100.00
73516;BME280;61763;51.416;5.442;2023-04-03T03:40:50;102952.41;;;-0.28;100.00
73516;BME280;61763;51.416;5.442;2023-04-03T03:43:16;102945.41;;;-0.24;100.00
73516;BME280;61763;51.416;5.442;2023-04-03T03:45:42;102956.84;;;-0.27;100.00
73516;BME280;61763;51.416;5.442;2023-04-03T03:48:07;102957.75;;;-0.26;100.00
73516;BME280;61763;51.416;5.442;2023-04-03T03:50:34;102961.97;;;-0.33;100.00
73516;BME280;61763;51.416;5.442;2023-04-03T03:53:00;102957.81;;;-0.25;100.00
73516;BME280;61763;51.416;5.442;2023-04-03T03:55:25;102970.31;;;-0.21;100.00
73516;BME280;61763;51.416;5.442;2023-04-03T03:57:51;102967.31;;;-0.31;100.00
73516;BME280;61763;51.416;5.442;2023-04-03T04:00:17;102972.50;;;-0.36;100.00
73516;BME280;61763;51.416;5.442;2023-04-03T04:02:43;102977.25;;;-0.24;100.00
73516;BME280;61763;51.416;5.442;2023-04-03T04:05:08;102966.38;;;-0.02;100.00
73516;BME280;61763;51.416;5.442;2023-04-03T04:07:35;102960.50;;;-0.23;100.00
73516;BME280;61763;51.416;5.442;2023-04-03T04:10:00;102967.44;;;-0.27;100.00
73516;BME280;61763;51.416;5.442;2023-04-03T04:12:26;102976.50;;;-0.20;100.00
73516;BME280;61763;51.416;5.442;2023-04-03T04:14:51;102973.72;;;-0.25;100.00
73516;BME280;61763;51.416;5.442;2023-04-03T04:17:16;102965.84;;;-0.22;100.00
73516;BME280;61763;51.416;5.442;2023-04-03T04:19:42;102973.16;;;-0.13;100.00
73516;BME280;61763;51.416;5.442;2023-04-03T04:22:07;102961.75;;;-0.10;100.00
73516;BME280;61763;51.416;5.442;2023-04-03T04:24:33;102962.28;;;-0.22;100.00
73516;BME280;61763;51.416;5.442;2023-04-03T04:26:58;102965.94;;;-0.19;100.00
73516;BME280;61763;51.416;5.442;2023-04-03T04:29:24;102971.13;;;-0.23;100.00
73516;BME280;61763;51.416;5.442;2023-04-03T04:31:49;102959.97;;;-0.10;100.00
73516;BME280;61763;51.416;5.442;2023-04-03T04:34:16;102960.59;;;-0.20;100.00
73516;BME280;61763;51.416;5.442;2023-04-03T04:36:41;102964.75;;;-0.28;100.00
73516;BME280;61763;51.416;5.442;2023-04-03T04:39:07;102973.34;;;-0.07;100.00
73516;BME280;61763;51.416;5.442;2023-04-03T04:41:34;102967.19;;;-0.06;100.00
73516;BME280;61763;51.416;5.442;2023-04-03T04:43:59;102960.88;;;-0.09;100.00
73516;BME280;61763;51.416;5.442;2023-04-03T04:46:25;102977.91;;;-0.01;100.00
73516;BME280;61763;51.416;5.442;2023-04-03T04:48:51;102970.47;;;-0.14;100.00
73516;BME280;61763;51.416;5.442;2023-04-03T04:51:16;102978.47;;;-0.13;100.00
73516;BME280;61763;51.416;5.442;2023-04-03T04:53:42;102985.13;;;0.03;100.00
73516;BME280;61763;51.416;5.442;2023-04-03T04:56:08;102989.38;;;-0.02;100.00
73516;BME280;61763;51.416;5.442;2023-04-03T04:58:33;102984.03;;;-0.04;100.00
73516;BME280;61763;51.416;5.442;2023-04-03T05:01:00;102991.84;;;-0.10;100.00
73516;BME280;61763;51.416;5.442;2023-04-03T05:03:29;102990.75;;;-0.16;100.00
73516;BME280;61763;51.416;5.442;2023-04-03T05:05:55;102995.59;;;-0.02;100.00
73516;BME280;61763;51.416;5.442;2023-04-03T05:08:21;102996.19;;;-0.12;100.00
73516;BME280;61763;51.416;5.442;2023-04-03T05:10:46;102982.75;;;-0.18;100.00
73516;BME280;61763;51.416;5.442;2023-04-03T05:13:12;102991.53;;;-0.21;100.00
73516;BME280;61763;51.416;5.442;2023-04-03T05:15:37;102989.59;;;0.06;100.00
73516;BME280;61763;51.416;5.442;2023-04-03T05:18:03;102997.50;;;0.04;100.00
73516;BME280;61763;51.416;5.442;2023-04-03T05:20:28;102999.78;;;-0.10;100.00
73516;BME280;61763;51.416;5.442;2023-04-03T05:22:54;102999.78;;;-0.10;100.00
73516;BME280;61763;51.416;5.442;2023-04-03T05:25:19;103000.38;;;-0.20;100.00
73516;BME280;61763;51.416;5.442;2023-04-03T05:27:45;103000.38;;;-0.20;100.00
73516;BME280;61763;51.416;5.442;2023-04-03T05:30:11;103010.19;;;-0.17;100.00
73516;BME280;61763;51.416;5.442;2023-04-03T05:32:36;103016.53;;;-0.12;100.00
73516;BME280;61763;51.416;5.442;2023-04-03T05:35:02;103012.94;;;-0.14;100.00
73516;BME280;61763;51.416;5.442;2023-04-03T05:37:27;103021.91;;;-0.09;100.00
73516;BME280;61763;51.416;5.442;2023-04-03T05:39:53;103016.69;;;-0.06;100.00
73516;BME280;61763;51.416;5.442;2023-04-03T05:42:18;103018.38;;;-0.10;100.00
73516;BME280;61763;51.416;5.442;2023-04-03T05:44:44;103016.75;;;-0.05;100.00
73516;BME280;61763;51.416;5.442;2023-04-03T05:47:12;103014.69;;;-0.15;100.00
73516;BME280;61763;51.416;5.442;2023-04-03T05:49:37;103023.78;;;-0.07;100.00
73516;BME280;61763;51.416;5.442;2023-04-03T05:52:11;103019.84;;;-0.20;100.00
73516;BME280;61763;51.416;5.442;2023-04-03T05:54:42;103022.13;;;-0.02;100.00
73516;BME280;61763;51.416;5.442;2023-04-03T05:57:08;103019.25;;;-0.09;100.00
73516;BME280;61763;51.416;5.442;2023-04-03T05:59:33;103022.53;;;0.12;100.00
73516;BME280;61763;51.416;5.442;2023-04-03T06:01:58;103018.72;;;0.03;100.00
73516;BME280;61763;51.416;5.442;2023-04-03T06:04:24;103006.44;;;0.06;100.00
73516;BME280;61763;51.416;5.442;2023-04-03T06:06:54;103016.47;;;0.16;100.00
73516;BME280;61763;51.416;5.442;2023-04-03T06:09:22;103019.25;;;0.21;100.00
73516;BME280;61763;51.416;5.442;2023-04-03T06:11:47;103020.00;;;0.17;100.00
73516;BME280;61763;51.416;5.442;2023-04-03T06:14:14;103030.94;;;0.29;100.00
73516;BME280;61763;51.416;5.442;2023-04-03T06:16:40;103020.56;;;0.37;100.00
73516;BME280;61763;51.416;5.442;2023-04-03T06:19:08;103021.59;;;0.44;100.00
73516;BME280;61763;51.416;5.442;2023-04-03T06:21:33;103024.72;;;0.61;100.00
73516;BME280;61763;51.416;5.442;2023-04-03T06:23:59;103029.41;;;0.71;100.00
73516;BME280;61763;51.416;5.442;2023-04-03T06:26:24;103025.91;;;0.74;100.00
73516;BME280;61763;51.416;5.442;2023-04-03T06:28:50;103030.59;;;0.84;100.00
73516;BME280;61763;51.416;5.442;2023-04-03T06:31:15;103029.81;;;0.88;100.00
73516;BME280;61763;51.416;5.442;2023-04-03T06:33:42;103040.56;;;0.93;100.00
73516;BME280;61763;51.416;5.442;2023-04-03T06:36:09;103040.19;;;1.12;100.00
73516;BME280;61763;51.416;5.442;2023-04-03T06:38:35;103034.00;;;1.15;100.00
73516;BME280;61763;51.416;5.442;2023-04-03T06:41:01;103035.25;;;1.29;100.00
73516;BME280;61763;51.416;5.442;2023-04-03T06:43:27;103040.03;;;1.46;100.00
73516;BME280;61763;51.416;5.442;2023-04-03T06:45:52;103045.41;;;1.47;100.00
73516;BME280;61763;51.416;5.442;2023-04-03T06:48:20;103040.31;;;1.56;100.00
73516;BME280;61763;51.416;5.442;2023-04-03T06:50:46;103039.66;;;1.67;100.00
73516;BME280;61763;51.416;5.442;2023-04-03T06:53:11;103045.84;;;1.67;100.00
73516;BME280;61763;51.416;5.442;2023-04-03T06:55:37;103039.16;;;1.86;100.00
73516;BME280;61763;51.416;5.442;2023-04-03T06:58:03;103044.66;;;1.96;100.00
73516;BME280;61763;51.416;5.442;2023-04-03T07:00:29;103044.88;;;2.05;100.00
73516;BME280;61763;51.416;5.442;2023-04-03T07:02:55;103045.81;;;2.07;100.00
73516;BME280;61763;51.416;5.442;2023-04-03T07:05:24;103049.56;;;2.17;100.00
73516;BME280;61763;51.416;5.442;2023-04-03T07:07:50;103050.56;;;2.23;100.00
73516;BME280;61763;51.416;5.442;2023-04-03T07:10:18;103049.69;;;2.23;100.00
73516;BME280;61763;51.416;5.442;2023-04-03T07:12:43;103053.25;;;2.25;100.00
73516;BME280;61763;51.416;5.442;2023-04-03T07:15:09;103059.59;;;2.30;100.00
73516;BME280;61763;51.416;5.442;2023-04-03T07:17:35;103050.16;;;2.48;100.00
73516;BME280;61763;51.416;5.442;2023-04-03T07:20:02;103054.88;;;2.62;100.00
73516;BME280;61763;51.416;5.442;2023-04-03T07:22:28;103052.34;;;2.72;100.00
73516;BME280;61763;51.416;5.442;2023-04-03T07:24:53;103058.72;;;2.78;100.00
73516;BME280;61763;51.416;5.442;2023-04-03T07:27:18;103058.69;;;2.77;100.00
73516;BME280;61763;51.416;5.442;2023-04-03T07:29:44;103063.47;;;2.98;100.00
73516;BME280;61763;51.416;5.442;2023-04-03T07:32:10;103059.75;;;2.90;99.58
73516;BME280;61763;51.416;5.442;2023-04-03T07:34:37;103059.22;;;3.09;99.82
73516;BME280;61763;51.416;5.442;2023-04-03T07:37:02;103061.97;;;3.14;98.55
73516;BME280;61763;51.416;5.442;2023-04-03T07:39:28;103065.59;;;3.21;98.76
73516;BME280;61763;51.416;5.442;2023-04-03T07:41:54;103067.41;;;3.20;97.99
73516;BME280;61763;51.416;5.442;2023-04-03T07:44:21;103072.09;;;3.38;99.89
73516;BME280;61763;51.416;5.442;2023-04-03T07:46:46;103069.47;;;3.41;97.65
73516;BME280;61763;51.416;5.442;2023-04-03T07:49:13;103065.31;;;3.60;95.19
73516;BME280;61763;51.416;5.442;2023-04-03T07:51:39;103065.50;;;3.73;94.46
73516;BME280;61763;51.416;5.442;2023-04-03T07:54:05;103067.44;;;3.84;94.86
73516;BME280;61763;51.416;5.442;2023-04-03T07:56:30;103068.56;;;4.02;92.88
73516;BME280;61763;51.416;5.442;2023-04-03T07:58:56;103065.91;;;4.02;90.80
73516;BME280;61763;51.416;5.442;2023-04-03T08:01:22;103061.53;;;4.10;90.76
73516;BME280;61763;51.416;5.442;2023-04-03T08:03:47;103074.22;;;4.30;90.46
73516;BME280;61763;51.416;5.442;2023-04-03T08:06:13;103072.44;;;4.27;87.26
73516;BME280;61763;51.416;5.442;2023-04-03T08:08:40;103063.59;;;4.33;85.42
73516;BME280;61763;51.416;5.442;2023-04-03T08:11:05;103060.25;;;4.55;86.43
73516;BME280;61763;51.416;5.442;2023-04-03T08:13:32;103061.28;;;4.68;83.33
73516;BME280;61763;51.416;5.442;2023-04-03T08:15:57;103062.22;;;4.77;83.73
73516;BME280;61763;51.416;5.442;2023-04-03T08:18:24;103060.53;;;4.86;83.43
73516;BME280;61763;51.416;5.442;2023-04-03T08:20:51;103062.47;;;5.03;81.60
73516;BME280;61763;51.416;5.442;2023-04-03T08:23:18;103062.47;;;5.03;78.03
73516;BME280;61763;51.416;5.442;2023-04-03T08:25:44;103054.44;;;5.04;76.96
73516;BME280;61763;51.416;5.442;2023-04-03T08:28:10;103062.66;;;5.24;75.47
73516;BME280;61763;51.416;5.442;2023-04-03T08:30:39;103064.34;;;5.15;74.43
73516;BME280;61763;51.416;5.442;2023-04-03T08:33:04;103063.66;;;5.40;73.07
73516;BME280;61763;51.416;5.442;2023-04-03T08:35:31;103062.75;;;5.43;69.56
73516;BME280;61763;51.416;5.442;2023-04-03T08:37:57;103069.91;;;5.46;71.16
73516;BME280;61763;51.416;5.442;2023-04-03T08:40:22;103063.84;;;5.71;70.25
73516;BME280;61763;51.416;5.442;2023-04-03T08:43:02;103065.78;;;5.99;69.31
73516;BME280;61763;51.416;5.442;2023-04-03T08:48:26;103070.06;;;5.64;64.01
73516;BME280;61763;51.416;5.442;2023-04-03T08:50:58;103071.06;;;5.88;64.06
73516;BME280;61763;51.416;5.442;2023-04-03T08:53:27;103073.81;;;5.99;62.01
73516;BME280;61763;51.416;5.442;2023-04-03T08:55:56;103080.16;;;6.25;62.01
73516;BME280;61763;51.416;5.442;2023-04-03T08:58:28;103069.41;;;6.05;59.39
73516;BME280;61763;51.416;5.442;2023-04-03T09:01:00;103079.28;;;6.26;58.86
73516;BME280;61763;51.416;5.442;2023-04-03T09:03:30;103068.56;;;6.29;55.61
73516;BME280;61763;51.416;5.442;2023-04-03T09:06:19;103067.72;;;6.44;54.68
73516;BME280;61763;51.416;5.442;2023-04-03T09:08:51;103080.25;;;6.61;56.66
73516;BME280;61763;51.416;5.442;2023-04-03T09:11:26;103068.69;;;6.79;54.92
73516;BME280;61763;51.416;5.442;2023-04-03T09:16:56;103067.78;;;6.84;46.62
73516;BME280;61763;51.416;5.442;2023-04-03T09:19:36;103066.88;;;6.92;45.82
73516;BME280;61763;51.416;5.442;2023-04-03T09:22:27;103075.78;;;6.49;43.09
73516;BME280;61763;51.416;5.442;2023-04-03T09:25:46;103057.94;;;6.93;44.32
73516;BME280;61763;51.416;5.442;2023-04-03T09:27:47;103063.31;;;6.85;42.07
73516;BME280;61763;51.416;5.442;2023-04-03T09:30:15;103060.63;;;7.22;42.89
73516;BME280;61763;51.416;5.442;2023-04-03T09:32:41;103069.56;;;7.44;42.35
73516;BME280;61763;51.416;5.442;2023-04-03T09:35:36;103069.56;;;7.38;42.14
73516;BME280;61763;51.416;5.442;2023-04-03T09:38:15;103080.31;;;7.35;38.80
73516;BME280;61763;51.416;5.442;2023-04-03T09:40:43;103074.97;;;7.06;39.05
73516;BME280;61763;51.416;5.442;2023-04-03T09:45:42;103067.81;;;6.95;39.59
73516;BME280;61763;51.416;5.442;2023-04-03T09:53:36;103058.81;;;7.27;37.94
73516;BME280;61763;51.416;5.442;2023-04-03T09:56:18;103052.56;;;7.24;38.72
73516;BME280;61763;51.416;5.442;2023-04-03T09:58:50;103043.59;;;7.42;39.05
73516;BME280;61763;51.416;5.442;2023-04-03T10:01:37;103042.66;;;7.57;38.69
73516;BME280;61763;51.416;5.442;2023-04-03T10:04:12;103047.91;;;8.00;37.96
73516;BME280;61763;51.416;5.442;2023-04-03T10:06:49;103041.75;;;7.70;36.46
73516;BME280;61763;51.416;5.442;2023-04-03T10:12:10;103033.56;;;8.02;38.23
73516;BME280;61763;51.416;5.442;2023-04-03T10:15:00;103033.63;;;7.82;37.28
73516;BME280;61763;51.416;5.442;2023-04-03T10:23:02;103034.59;;;7.61;36.21
73516;BME280;61763;51.416;5.442;2023-04-03T10:25:38;103029.09;;;7.87;35.90
73516;BME280;61763;51.416;5.442;2023-04-03T10:34:06;103024.53;;;8.08;37.39
73516;BME280;61763;51.416;5.442;2023-04-03T10:36:46;103021.13;;;7.72;34.65
73516;BME280;61763;51.416;5.442;2023-04-03T10:39:33;103026.59;;;7.27;33.35
73516;BME280;61763;51.416;5.442;2023-04-03T10:45:19;102996.00;;;7.79;34.68
73516;BME280;61763;51.416;5.442;2023-04-03T10:50:31;103003.25;;;7.56;33.91
73516;BME280;61763;51.416;5.442;2023-04-03T10:55:36;102996.06;;;7.70;33.72
73516;BME280;61763;51.416;5.442;2023-04-03T10:58:06;102989.72;;;7.83;34.09
73516;BME280;61763;51.416;5.442;2023-04-03T11:00:46;102986.75;;;8.30;33.95
73516;BME280;61763;51.416;5.442;2023-04-03T11:03:21;102978.84;;;8.02;32.81
73516;BME280;61763;51.416;5.442;2023-04-03T11:05:53;102984.03;;;8.36;32.47
73516;BME280;61763;51.416;5.442;2023-04-03T11:11:47;102985.88;;;8.29;33.85
73516;BME280;61763;51.416;5.442;2023-04-03T11:14:17;102981.53;;;8.03;32.50
73516;BME280;61763;51.416;5.442;2023-04-03T11:16:50;102978.97;;;7.82;32.70
73516;BME280;61763;51.416;5.442;2023-04-03T11:19:21;102979.59;;;8.27;33.61
73516;BME280;61763;51.416;5.442;2023-04-03T11:24:38;102976.03;;;8.27;33.79
73516;BME280;61763;51.416;5.442;2023-04-03T11:27:15;102974.16;;;8.44;31.54
73516;BME280;61763;51.416;5.442;2023-04-03T11:29:43;102963.31;;;8.50;31.65
73516;BME280;61763;51.416;5.442;2023-04-03T11:32:37;102967.91;;;8.31;31.33
73516;BME280;61763;51.416;5.442;2023-04-03T11:35:10;102965.25;;;8.28;31.86
73516;BME280;61763;51.416;5.442;2023-04-03T11:37:47;102960.00;;;8.08;33.12
73516;BME280;61763;51.416;5.442;2023-04-03T11:42:46;102951.47;;;8.73;33.85
73516;BME280;61763;51.416;5.442;2023-04-03T11:45:25;102949.97;;;8.35;33.90
73516;BME280;61763;51.416;5.442;2023-04-03T11:47:54;102942.66;;;8.58;32.22
73516;BME280;61763;51.416;5.442;2023-04-03T11:50:42;102930.78;;;8.78;31.46
73516;BME280;61763;51.416;5.442;2023-04-03T11:58:21;102938.16;;;8.57;33.27
73516;BME280;61763;51.416;5.442;2023-04-03T12:00:49;102940.78;;;8.64;32.26
73516;BME280;61763;51.416;5.442;2023-04-03T12:16:21;102915.63;;;8.69;31.02
73516;BME280;61763;51.416;5.442;2023-04-03T12:26:41;102921.16;;;8.49;31.46
73516;BME280;61763;51.416;5.442;2023-04-03T12:29:22;102920.06;;;8.73;32.98
73516;BME280;61763;51.416;5.442;2023-04-03T12:35:00;102939.94;;;8.60;30.54
73516;BME280;61763;51.416;5.442;2023-04-03T12:46:12;102910.38;;;8.52;30.86
73516;BME280;61763;51.416;5.442;2023-04-03T12:51:18;102904.78;;;8.75;31.26
73516;BME280;61763;51.416;5.442;2023-04-03T12:53:45;102894.19;;;8.58;31.69
73516;BME280;61763;51.416;5.442;2023-04-03T12:56:28;102892.56;;;8.34;31.28
73516;BME280;61763;51.416;5.442;2023-04-03T12:59:12;102888.78;;;8.62;31.79
73516;BME280;61763;51.416;5.442;2023-04-03T13:01:38;102896.84;;;8.62;31.96
73516;BME280;61763;51.416;5.442;2023-04-03T13:04:03;102881.38;;;8.85;31.72
73516;BME280;61763;51.416;5.442;2023-04-03T13:06:48;102880.59;;;8.72;29.79
73516;BME280;61763;51.416;5.442;2023-04-03T13:09:20;102874.22;;;8.83;31.41
73516;BME280;61763;51.416;5.442;2023-04-03T13:11:53;102879.00;;;8.51;32.35
73516;BME280;61763;51.416;5.442;2023-04-03T13:14:23;102877.28;;;8.41;32.96
73516;BME280;61763;51.416;5.442;2023-04-03T13:17:04;102872.53;;;8.71;33.32
73516;BME280;61763;51.416;5.442;2023-04-03T13:19:32;102872.59;;;8.65;33.14
73516;BME280;61763;51.416;5.442;2023-04-03T13:24:50;102869.00;;;8.66;32.78
73516;BME280;61763;51.416;5.442;2023-04-03T13:27:16;102870.59;;;8.85;34.71
73516;BME280;61763;51.416;5.442;2023-04-03T13:29:42;102858.91;;;8.85;34.42
73516;BME280;61763;51.416;5.442;2023-04-03T13:32:18;102866.03;;;8.92;34.71
73516;BME280;61763;51.416;5.442;2023-04-03T13:34:47;102856.97;;;8.99;35.19
73516;BME280;61763;51.416;5.442;2023-04-03T13:37:24;102854.28;;;8.98;33.86
73516;BME280;61763;51.416;5.442;2023-04-03T13:40:11;102851.00;;;8.69;33.29
73516;BME280;61763;51.416;5.442;2023-04-03T13:42:39;102837.63;;;8.63;33.86
73516;BME280;61763;51.416;5.442;2023-04-03T13:45:31;102842.94;;;8.69;33.93
73516;BME280;61763;51.416;5.442;2023-04-03T13:50:59;102849.09;;;8.82;35.21
73516;BME280;61763;51.416;5.442;2023-04-03T13:53:31;102852.50;;;8.98;35.95
73516;BME280;61763;51.416;5.442;2023-04-03T14:01:23;102843.78;;;8.73;37.10
73516;BME280;61763;51.416;5.442;2023-04-03T14:03:56;102844.53;;;8.87;35.46
73516;BME280;61763;51.416;5.442;2023-04-03T14:06:23;102839.28;;;8.76;35.67
73516;BME280;61763;51.416;5.442;2023-04-03T14:08:48;102841.00;;;8.82;36.62
73516;BME280;61763;51.416;5.442;2023-04-03T14:11:18;102839.94;;;8.99;36.27
73516;BME280;61763;51.416;5.442;2023-04-03T14:13:44;102832.25;;;8.62;34.89
73516;BME280;61763;51.416;5.442;2023-04-03T14:16:21;102833.09;;;8.65;34.77
73516;BME280;61763;51.416;5.442;2023-04-03T14:18:48;102834.13;;;8.53;35.40
73516;BME280;61763;51.416;5.442;2023-04-03T14:21:16;102848.44;;;8.60;36.69
73516;BME280;61763;51.416;5.442;2023-04-03T14:23:42;102839.59;;;8.42;37.41
73516;BME280;61763;51.416;5.442;2023-04-03T14:26:16;102831.47;;;8.49;38.24
73516;BME280;61763;51.416;5.442;2023-04-03T14:28:44;102828.78;;;8.49;38.08
73516;BME280;61763;51.416;5.442;2023-04-03T14:31:11;102827.03;;;8.43;37.70
73516;BME280;61763;51.416;5.442;2023-04-03T14:33:39;102832.41;;;8.46;38.00
73516;BME280;61763;51.416;5.442;2023-04-03T14:36:23;102821.56;;;8.52;36.90
73516;BME280;61763;51.416;5.442;2023-04-03T14:38:51;102836.88;;;8.47;37.22